Stroh, IN (46789)

10:52 AM EST on February 13, 2016 (GMT -0500)
Adams Lake | | Change Station
CLOSE
Current Station
Personal Weather Station
Location: Wolcottville, IN
Elevation: 955 ft
Nearby Weather Stations

Elev 955 ft 41.56 °N, 85.32 °W | Updated 14 minutes ago

Overcast
Overcast
12.2 °F
Feels Like 4 °F
N
4.7
Wind Variable Wind from SW

Today
High -- | Low -- °F
--% Chance of Precip.
Yesterday
High -- | Low -- °F
Precip. -- in
Pressure 30.45 in
Visibility 10.0 miles
Clouds Few 2000 ft
Mostly Cloudy 2700 ft
Mostly Cloudy 3200 ft
Windchill 4 °F
Dew Point 5 °F
Humidity 73%
Rainfall 0.00 in
Snow Depth Not available.
7:39 AM 6:11 PM
Waxing Crescent, 31% visible
METAR KANQ 131615Z AUTO 26005KT 10SM FEW020 BKN027 BKN032 M12/M16 A3045 RMK
Pressure 30.45 in
Visibility 10.0 miles
Clouds Few 2000 ft
Mostly Cloudy 2700 ft
Mostly Cloudy 3200 ft
Windchill 4 °F
Dew Point 5 °F
Humidity 73%
Rainfall 0.00 in
Snow Depth Not available.
7:39 AM 6:11 PM
Waxing Crescent, 31% visible
METAR KANQ 131615Z AUTO 26005KT 10SM FEW020 BKN027 BKN032 M12/M16 A3045 RMK

10-Day Weather Forecast

Almanac

Astronomy

Feb. 13, 2016 Rise Set
Actual Time
Civil Twilight
Nautical Twilight
Astronomical Twilight
Moon
Length of Visible Light
Length of Day
Tomorrow will be .
, % of the Moon is Illuminated

Today's Extremes

State Highs State Lows

Community

WunderPhotos

Upload Photos

1,892,587 photos uploaded!

WunderBlog® & News

Nearby

Air Quality

  Air Quality AQ Index Pollutant
Not available.

Snow Depth

Station Depth Elevation

Earthquake Activity

City Distance Mag. Time & Date
Minimum magnitude displayed is 2.5.

Coastal Water Temperatures

Place Temperature

Stations

Nearby Weather Stations

Station Location Temp. Windchill Dew Point Humidity Wind Precip. Elev Updated Type
                   

Watches & Warnings

There are currently no watches in effect.